MDT,Max TemperatureF,Mean TemperatureF,Min TemperatureF,Max Dew PointF,MeanDew PointF,Min DewpointF,Max Humidity, Mean Humidity, Min Humidity, Max Sea Level PressureIn, Mean Sea Level PressureIn, Min Sea Level PressureIn, Max VisibilityMiles, Mean VisibilityMiles, Min VisibilityMiles, Max Wind SpeedMPH, Mean Wind SpeedMPH, Max Gust SpeedMPH,PrecipitationIn, CloudCover, Events, WindDirDegrees
2012-4-1,55,48,42,16,11,7,34,22,14,30.01,29.88,29.72,10,10,10,28,14,44,0.00,0,,137
2012-4-2,35,30,26,28,25,19,100,84,52,29.96,29.79,29.68,10,6,0,18,7,21,0.00,6,Snow,257
2012-4-3,42,35,28,28,26,21,100,77,42,30.04,29.98,29.91,10,9,2,16,2,26,0.02,6,Snow,267
2012-4-4,53,42,30,25,20,10,80,51,18,30.09,30.06,30.01,10,10,10,14,5,22,0.00,0,,166
2012-4-5,53,46,39,27,10,-9,53,26,9,30.07,30.03,29.99,10,10,7,26,6,48,0.00,2,,147
2012-4-6,48,44,39,28,-4,-17,61,16,7,30.09,29.99,29.93,10,10,10,26,15,45,0.00,1,,176
2012-4-7,51,37,23,3,-8,-36,43,18,4,30.40,30.34,30.25,10,10,10,14,4,17,0.00,0,,218
2012-4-8,57,45,33,12,1,-9,28,16,9,30.44,30.40,30.35,10,10,10,15,7,24,0.00,2,,190
2012-4-9,60,48,37,16,7,-8,41,22,6,30.37,30.32,30.26,10,10,7,14,6,23,0.00,1,,155
2012-4-10,62,50,39,27,12,5,38,23,10,30.31,30.25,30.19,10,10,10,15,7,24,0.00,1,,142
2012-4-11,60,50,41,32,24,12,50,36,18,30.22,30.08,29.91,10,10,5,26,9,48,0.00,3,Rain-Thunderstorm,136
2012-4-12,41,36,32,30,19,10,93,54,35,30.01,29.97,29.93,10,9,1,18,6,32,0.01,5,Snow-Thunderstorm,208
2012-4-13,35,30,26,21,16,7,64,51,30,29.99,29.92,29.82,10,10,10,16,4,31,0.00,6,,142
2012-4-14,32,28,23,25,20,10,93,70,41,29.80,29.70,29.62,10,7,0,16,6,28,0.01,8,Snow,127
2012-4-15,35,29,23,28,23,19,100,84,56,30.13,29.94,29.76,10,5,0,20,5,24,0.06,8,Snow,255
2012-4-16,42,33,24,27,21,14,100,66,33,30.33,30.24,30.14,10,10,5,12,3,17,0.05,5,Snow,194
2012-4-17,51,40,28,21,17,10,69,43,19,30.33,30.30,30.24,10,10,10,15,6,23,0.00,2,,161
2012-4-18,55,44,32,27,18,5,64,38,14,30.29,30.21,30.12,10,10,10,22,7,38,0.00,3,,181
2012-4-19,50,41,32,34,30,21,100,67,37,30.27,30.18,30.12,10,9,0,18,4,26,0.03,7,Rain-Snow-Thunderstorm,275
2012-4-20,57,44,32,28,23,14,87,49,20,30.39,30.31,30.27,10,10,10,16,3,26,0.00,0,,262
2012-4-21,62,48,35,27,16,5,70,32,11,30.40,30.37,30.34,10,10,10,9,4,,0.00,0,,71
2012-4-22,64,50,37,23,16,7,48,26,11,30.42,30.39,30.35,10,10,10,9,6,,0.00,2,,103
2012-4-23,68,54,41,23,19,9,49,28,11,30.42,30.37,30.30,10,10,10,12,5,18,0.00,2,,122
2012-4-24,68,55,42,23,15,1,43,23,7,30.34,30.28,30.20,10,10,10,15,7,26,0.00,2,,170
2012-4-25,62,53,44,37,22,5,71,37,12,30.35,30.29,30.24,10,10,10,18,7,29,0.00,6,Rain,160
2012-4-26,60,48,35,39,29,19,93,53,22,30.29,30.11,29.92,10,9,3,24,6,44,0.23,7,Rain-Thunderstorm,129
2012-4-27,50,42,33,36,26,12,100,63,29,30.12,30.06,30.00,10,9,2,16,4,26,0.08,5,Rain-Snow,270
2012-4-28,50,41,32,25,17,10,75,44,20,30.12,30.07,30.01,10,10,2,17,4,25,0.00,2,Snow,277
2012-4-29,53,42,32,21,15,5,60,36,14,30.22,30.11,30.05,10,10,10,13,5,32,0.00,3,,227
2012-4-30,59,46,32,18,10,0,55,28,10,30.22,30.18,30.12,10,10,10,16,6,23,0.00,0,,180